createdAt,value
2023-01-19T00:02:01.174Z,97324.94
2023-01-19T00:05:03.985Z,97318.97
2023-01-19T00:08:14.716Z,97332.13
2023-01-19T00:11:18.937Z,97329.56
2023-01-19T00:14:20.434Z,97335.16
2023-01-19T00:17:21.896Z,97341.97
2023-01-19T00:20:23.593Z,97345.13
2023-01-19T00:23:25.080Z,97349.75
2023-01-19T00:26:26.603Z,97353.09
2023-01-19T00:29:30.795Z,97353.91
2023-01-19T00:32:32.267Z,97352.41
2023-01-19T00:35:34.544Z,97358.72
2023-01-19T00:38:35.999Z,97360.03
2023-01-19T00:41:55.947Z,97358.75
2023-01-19T00:44:57.477Z,97356.66
2023-01-19T00:47:58.941Z,97359.03
2023-01-19T00:51:00.409Z,97353.09
2023-01-19T00:54:04.860Z,97367.34
2023-01-19T00:57:06.511Z,97363.06
2023-01-19T01:00:11.582Z,97365.56
2023-01-19T01:03:13.100Z,97369.31
2023-01-19T01:06:14.657Z,97378.56
2023-01-19T01:09:16.156Z,97370.66
2023-01-19T01:12:17.636Z,97367.56
2023-01-19T01:15:19.398Z,97371.69
2023-01-19T01:18:21.010Z,97375.03
2023-01-19T01:21:23.649Z,97379.75
2023-01-19T01:24:25.121Z,97382.09
2023-01-19T01:27:26.578Z,97384.66
2023-01-19T01:30:28.049Z,97385.03
2023-01-19T01:33:41.256Z,97388.66
2023-01-19T01:36:43.552Z,97396.16
2023-01-19T01:39:45.030Z,97386.84
2023-01-19T01:42:46.668Z,97378.66
2023-01-19T01:45:48.394Z,97383.69
2023-01-19T01:48:57.341Z,97385.00
2023-01-19T01:51:58.802Z,97392.78
2023-01-19T01:55:00.466Z,97377.28
2023-01-19T01:58:03.065Z,97374.13
2023-01-19T02:01:23.805Z,97372.69
2023-01-19T02:04:25.368Z,97371.09
2023-01-19T02:07:50.444Z,97367.47
2023-01-19T02:11:10.434Z,97380.06
2023-01-19T02:14:11.930Z,97378.38
2023-01-19T02:17:13.976Z,97376.78
2023-01-19T02:20:16.199Z,97376.78
2023-01-19T02:23:24.800Z,97372.69
2023-01-19T02:26:28.166Z,97368.47
2023-01-19T02:29:29.653Z,97362.03
2023-01-19T02:32:31.113Z,97359.69
2023-01-19T02:35:32.635Z,97368.28
2023-01-19T02:38:35.037Z,97371.66
2023-01-19T02:41:48.061Z,97369.22
2023-01-19T02:44:50.391Z,97380.94
2023-01-19T02:47:52.348Z,97370.97
2023-01-19T02:50:56.798Z,97369.38
2023-01-19T02:54:41.032Z,97374.41
2023-01-19T02:57:57.404Z,97374.34
2023-01-19T03:01:09.620Z,97378.53
2023-01-19T03:04:29.890Z,97381.47
2023-01-19T03:07:50.663Z,97375.41
2023-01-19T03:11:03.547Z,97379.81
2023-01-19T03:14:08.952Z,97377.16
2023-01-19T03:17:10.444Z,97381.44
2023-01-19T03:20:13.924Z,97378.16
2023-01-19T03:23:15.408Z,97377.47
2023-01-19T03:26:19.563Z,97377.31
2023-01-19T03:29:21.027Z,97375.53
2023-01-19T03:32:25.827Z,97380.22
2023-01-19T03:35:29.646Z,97390.31
2023-01-19T03:38:34.108Z,97388.84
2023-01-19T03:41:35.585Z,97388.56
2023-01-19T03:44:37.625Z,97384.69
2023-01-19T03:47:39.076Z,97394.06
2023-01-19T03:50:40.636Z,97403.56
2023-01-19T03:53:42.118Z,97406.78
2023-01-19T03:56:44.809Z,97407.53
2023-01-19T03:59:46.287Z,97409.47
2023-01-19T04:02:47.828Z,97402.53
2023-01-19T04:05:49.623Z,97414.06
2023-01-19T04:08:51.198Z,97414.94
2023-01-19T04:11:52.966Z,97421.13
2023-01-19T04:14:54.532Z,97419.28
2023-01-19T04:17:59.702Z,97419.22
2023-01-19T04:21:01.975Z,97423.81
2023-01-19T04:24:03.502Z,97421.47
2023-01-19T04:27:04.961Z,97431.34
2023-01-19T04:30:07.439Z,97430.75
2023-01-19T04:33:08.970Z,97431.03
2023-01-19T04:36:10.505Z,97438.41
2023-01-19T04:39:12.327Z,97442.72
2023-01-19T04:42:13.783Z,97447.03
2023-01-19T04:45:15.415Z,97452.53
2023-01-19T04:48:18.348Z,97446.84
2023-01-19T04:51:19.824Z,97449.59
2023-01-19T04:54:21.694Z,97450.56
2023-01-19T04:57:23.175Z,97468.00
2023-01-19T05:00:24.673Z,97461.16
2023-01-19T05:03:26.963Z,97458.03
2023-01-19T05:06:28.513Z,97470.16
2023-01-19T05:09:30.031Z,97459.34
2023-01-19T05:12:31.559Z,97455.44
2023-01-19T05:15:33.052Z,97457.28
2023-01-19T05:18:37.031Z,97450.44
2023-01-19T05:21:38.707Z,97464.13
2023-01-19T05:24:40.193Z,97472.75
2023-01-19T05:27:41.649Z,97472.88
2023-01-19T05:30:43.152Z,97474.47
2023-01-19T05:33:44.617Z,97477.09
2023-01-19T05:36:46.102Z,97474.66
2023-01-19T05:39:47.564Z,97475.22
2023-01-19T05:42:49.031Z,97477.38
2023-01-19T05:45:50.532Z,97476.69
2023-01-19T05:48:51.981Z,97479.84
2023-01-19T05:51:53.463Z,97481.69
2023-01-19T05:54:55.208Z,97479.50
2023-01-19T05:57:56.670Z,97477.25
2023-01-19T06:01:01.647Z,97480.19
2023-01-19T06:04:03.303Z,97492.97
2023-01-19T06:07:06.540Z,97486.31
2023-01-19T06:10:08.806Z,97489.50
2023-01-19T06:13:11.156Z,97498.22
2023-01-19T06:16:12.706Z,97495.78
2023-01-19T06:19:14.936Z,97496.03
2023-01-19T06:22:16.446Z,97494.50
2023-01-19T06:25:17.904Z,97498.16
2023-01-19T06:28:19.395Z,97500.13
2023-01-19T06:31:20.903Z,97500.66
2023-01-19T06:34:22.416Z,97498.03
2023-01-19T06:37:26.729Z,97498.31
2023-01-19T06:40:28.219Z,97496.78
2023-01-19T06:43:29.743Z,97497.00
2023-01-19T06:46:31.642Z,97492.22
2023-01-19T06:49:33.173Z,97500.06
2023-01-19T06:52:42.053Z,97508.13
2023-01-19T06:55:44.037Z,97507.34
2023-01-19T06:58:47.297Z,97503.38
2023-01-19T07:01:48.834Z,97509.47
2023-01-19T07:04:50.364Z,97514.56
2023-01-19T07:07:52.875Z,97519.03
2023-01-19T07:11:25.618Z,97526.78
2023-01-19T07:14:21.153Z,97529.34
2023-01-19T07:17:22.703Z,97521.44
2023-01-19T07:20:24.190Z,97536.44
2023-01-19T07:23:25.673Z,97537.34
2023-01-19T07:26:28.215Z,97548.53
2023-01-19T07:29:29.761Z,97555.56
2023-01-19T07:32:31.211Z,97566.34
2023-01-19T07:35:32.715Z,97558.03
2023-01-19T07:38:34.398Z,97565.06
2023-01-19T07:41:35.887Z,97566.53
2023-01-19T07:44:37.370Z,97567.94
2023-01-19T07:47:38.867Z,97560.19
2023-01-19T07:50:40.526Z,97559.34
2023-01-19T07:53:42.183Z,97560.28
2023-01-19T07:56:43.689Z,97559.63
2023-01-19T07:59:45.166Z,97561.81
2023-01-19T08:02:49.813Z,97567.16
2023-01-19T08:05:52.083Z,97565.19
2023-01-19T08:08:53.564Z,97562.63
2023-01-19T08:11:55.063Z,97565.03
2023-01-19T08:14:56.527Z,97565.13
2023-01-19T08:17:58.558Z,97572.16
2023-01-19T08:21:00.229Z,97566.47
2023-01-19T08:24:01.772Z,97565.06
2023-01-19T08:27:04.398Z,97574.56
2023-01-19T08:30:06.457Z,97579.44
2023-01-19T08:33:08.273Z,97573.31
2023-01-19T08:36:09.831Z,97581.06
2023-01-19T08:39:12.206Z,97589.84
2023-01-19T08:42:13.693Z,97580.56
2023-01-19T08:45:15.187Z,97608.69
2023-01-19T08:48:17.899Z,97612.56
2023-01-19T08:51:19.398Z,97621.31
2023-01-19T08:54:21.736Z,97638.13
2023-01-19T08:57:23.241Z,97635.88
2023-01-19T09:00:27.499Z,97637.66
2023-01-19T09:03:29.024Z,97647.09
2023-01-19T09:06:30.557Z,97663.53
2023-01-19T09:09:32.033Z,97662.84
2023-01-19T09:12:33.483Z,97668.34
2023-01-19T09:15:37.488Z,97670.25
2023-01-19T09:18:39.142Z,97681.22
2023-01-19T09:21:40.622Z,97688.53
2023-01-19T09:24:42.151Z,97683.28
2023-01-19T09:27:43.653Z,97691.31
2023-01-19T09:30:45.238Z,97695.88
2023-01-19T09:33:46.783Z,97700.59
2023-01-19T09:36:48.523Z,97699.78
2023-01-19T09:39:50.074Z,97702.03
2023-01-19T09:42:57.456Z,97705.63
2023-01-19T09:45:59.696Z,97706.50
2023-01-19T09:49:04.883Z,97708.19
2023-01-19T09:52:09.309Z,97707.50
2023-01-19T09:55:20.121Z,97698.06
2023-01-19T09:58:21.612Z,97702.03
2023-01-19T10:02:05.075Z,97708.81
2023-01-19T10:05:09.236Z,97704.44
2023-01-19T10:08:38.799Z,97713.19
2023-01-19T10:11:52.590Z,97707.88
2023-01-19T10:15:25.198Z,97715.47
2023-01-19T10:18:43.281Z,97710.69
2023-01-19T10:21:44.826Z,97709.53
2023-01-19T10:24:46.310Z,97708.50
2023-01-19T10:27:47.955Z,97712.25
2023-01-19T10:30:49.467Z,97713.97
2023-01-19T10:33:51.263Z,97719.06
2023-01-19T10:36:58.690Z,97710.78
2023-01-19T10:40:09.262Z,97718.22
2023-01-19T10:43:40.043Z,97719.78
2023-01-19T10:46:48.203Z,97717.69
2023-01-19T10:49:49.913Z,97727.06
2023-01-19T10:52:52.936Z,97715.47
2023-01-19T10:56:36.396Z,97724.66
2023-01-19T10:59:38.693Z,97727.56
2023-01-19T11:02:40.201Z,97728.34
2023-01-19T11:05:42.115Z,97730.97
2023-01-19T11:08:43.804Z,97727.56
2023-01-19T11:11:47.487Z,97734.41
2023-01-19T11:14:49.536Z,97745.75
2023-01-19T11:17:51.892Z,97752.50
2023-01-19T11:20:54.501Z,97748.78
2023-01-19T11:23:59.751Z,97751.09
2023-01-19T11:27:03.624Z,97744.03
2023-01-19T11:30:09.929Z,97744.75
2023-01-19T11:33:27.071Z,97747.19
2023-01-19T11:36:35.605Z,97746.59
2023-01-19T11:39:53.558Z,97744.41
2023-01-19T11:42:55.007Z,97736.19
2023-01-19T11:45:56.881Z,97731.72
2023-01-19T11:49:21.550Z,97734.41
2023-01-19T11:52:27.339Z,97727.69
2023-01-19T11:55:43.679Z,97721.03
2023-01-19T11:58:47.992Z,97721.66
2023-01-19T12:01:55.594Z,97714.63
2023-01-19T12:05:00.074Z,97719.34
2023-01-19T12:08:06.562Z,97716.59
2023-01-19T12:11:09.731Z,97709.13
2023-01-19T12:14:17.892Z,97711.16
2023-01-19T12:17:36.748Z,97706.19
2023-01-19T12:20:46.649Z,97700.06
2023-01-19T12:24:01.265Z,97693.91
2023-01-19T12:27:07.763Z,97690.72
2023-01-19T12:30:21.462Z,97688.63
2023-01-19T12:33:23.603Z,97698.63
2023-01-19T12:36:35.561Z,97693.59
2023-01-19T12:39:45.819Z,97699.47
2023-01-19T12:42:49.078Z,97696.84
2023-01-19T12:45:50.585Z,97695.56
2023-01-19T12:48:52.311Z,97684.69
2023-01-19T12:51:56.077Z,97691.56
2023-01-19T12:55:12.693Z,97689.63
2023-01-19T12:58:17.780Z,97689.13
2023-01-19T13:01:21.414Z,97680.97
2023-01-19T13:04:29.789Z,97683.47
2023-01-19T13:07:31.269Z,97683.81
2023-01-19T13:11:00.749Z,97687.56
2023-01-19T13:14:02.228Z,97682.69
2023-01-19T13:17:05.332Z,97682.03
2023-01-19T13:20:19.314Z,97684.00
2023-01-19T13:23:52.257Z,97677.72
2023-01-19T13:26:58.892Z,97682.13
2023-01-19T13:30:01.539Z,97684.72
2023-01-19T13:33:13.199Z,97677.66
2023-01-19T13:36:35.807Z,97686.25
2023-01-19T13:39:40.035Z,97683.50
2023-01-19T13:42:41.553Z,97687.91
2023-01-19T13:45:50.312Z,97685.47
2023-01-19T13:48:57.540Z,97692.31
2023-01-19T13:52:12.624Z,97688.78
2023-01-19T13:55:14.722Z,97687.13
2023-01-19T13:58:23.434Z,97692.31
2023-01-19T14:01:28.716Z,97692.88
2023-01-19T14:04:34.062Z,97691.88
2023-01-19T14:07:35.529Z,97689.22
2023-01-19T14:10:50.151Z,97693.53
2023-01-19T14:13:51.636Z,97689.28
2023-01-19T14:16:53.293Z,97694.28
2023-01-19T14:19:58.766Z,97695.13
2023-01-19T14:23:00.291Z,97700.47
2023-01-19T14:26:01.750Z,97703.56
2023-01-19T14:29:12.154Z,97702.44
2023-01-19T14:32:21.243Z,97708.22
2023-01-19T14:35:25.934Z,97706.81
2023-01-19T14:38:27.397Z,97700.09
2023-01-19T14:41:39.052Z,97700.47
2023-01-19T14:44:40.544Z,97698.47
2023-01-19T14:47:43.195Z,97701.13
2023-01-19T14:51:01.962Z,97695.06
2023-01-19T14:54:04.881Z,97702.81
2023-01-19T14:57:10.955Z,97700.31
2023-01-19T15:00:19.710Z,97709.19
2023-01-19T15:03:24.939Z,97702.06
2023-01-19T15:06:28.317Z,97707.41
2023-01-19T15:09:29.808Z,97705.63
2023-01-19T15:12:31.260Z,97702.28
2023-01-19T15:15:33.599Z,97707.47
2023-01-19T15:18:35.073Z,97695.31
2023-01-19T15:21:37.509Z,97701.34
2023-01-19T15:24:40.823Z,97691.91
2023-01-19T15:27:43.116Z,97690.97
2023-01-19T15:30:44.652Z,97684.50
2023-01-19T15:33:46.139Z,97680.84
2023-01-19T15:36:47.626Z,97670.56
2023-01-19T15:39:49.196Z,97668.19
2023-01-19T15:42:50.772Z,97662.13
2023-01-19T15:46:00.785Z,97647.50
2023-01-19T15:49:02.316Z,97656.84
2023-01-19T15:52:05.372Z,97657.47
2023-01-19T15:55:09.963Z,97648.84
2023-01-19T15:58:13.870Z,97648.06
2023-01-19T16:01:16.954Z,97636.50
2023-01-19T16:04:18.537Z,97631.03
2023-01-19T16:07:20.097Z,97627.69
2023-01-19T16:10:21.728Z,97620.94
2023-01-19T16:13:23.228Z,97625.22
2023-01-19T16:16:25.401Z,97625.34
2023-01-19T16:19:26.886Z,97620.84
2023-01-19T16:22:28.563Z,97624.28
2023-01-19T16:25:31.045Z,97621.69
2023-01-19T16:28:32.508Z,97620.75
2023-01-19T16:31:34.069Z,97619.06
2023-01-19T16:34:35.549Z,97617.41
2023-01-19T16:37:37.044Z,97616.53
2023-01-19T16:40:38.595Z,97619.13
2023-01-19T16:43:40.270Z,97618.50
2023-01-19T16:46:43.379Z,97619.19
2023-01-19T16:49:44.886Z,97624.44
2023-01-19T16:52:46.407Z,97617.59
2023-01-19T16:55:48.700Z,97617.44
2023-01-19T16:58:59.373Z,97614.09
2023-01-19T17:02:00.941Z,97618.63
2023-01-19T17:05:02.486Z,97616.03
2023-01-19T17:08:04.071Z,97613.22
2023-01-19T17:11:13.459Z,97604.81
2023-01-19T17:14:20.276Z,97608.16
2023-01-19T17:17:21.788Z,97611.59
2023-01-19T17:20:23.294Z,97610.81
2023-01-19T17:23:24.765Z,97609.81
2023-01-19T17:26:28.213Z,97607.25
2023-01-19T17:29:29.692Z,97611.44
2023-01-19T17:32:31.237Z,97608.09
2023-01-19T17:35:34.386Z,97607.16
2023-01-19T17:38:36.300Z,97610.31
2023-01-19T17:41:37.776Z,97612.13
2023-01-19T17:44:39.233Z,97608.84
2023-01-19T17:47:40.690Z,97601.94
2023-01-19T17:50:42.151Z,97605.06
2023-01-19T17:53:43.609Z,97602.47
2023-01-19T17:56:45.093Z,97597.91
2023-01-19T17:59:47.704Z,97599.63
2023-01-19T18:02:50.756Z,97596.13
2023-01-19T18:05:55.680Z,97598.59
2023-01-19T18:08:57.163Z,97591.81
2023-01-19T18:11:58.661Z,97592.78
2023-01-19T18:15:00.155Z,97590.28
2023-01-19T18:18:01.673Z,97593.03
2023-01-19T18:21:07.589Z,97587.97
2023-01-19T18:24:09.130Z,97584.53
2023-01-19T18:27:10.903Z,97590.47
2023-01-19T18:30:13.075Z,97583.47
2023-01-19T18:33:14.682Z,97579.19
2023-01-19T18:36:16.644Z,97587.91
2023-01-19T18:39:18.306Z,97590.44
2023-01-19T18:42:19.762Z,97595.66
2023-01-19T18:45:21.376Z,97587.13
2023-01-19T18:48:22.895Z,97590.47
2023-01-19T18:51:24.395Z,97594.81
2023-01-19T18:54:25.919Z,97590.47
2023-01-19T18:57:27.438Z,97601.63
2023-01-19T19:00:28.931Z,97594.84
2023-01-19T19:03:30.495Z,97598.16
2023-01-19T19:06:32.022Z,97598.84
2023-01-19T19:09:33.495Z,97596.13
2023-01-19T19:12:35.434Z,97595.94
2023-01-19T19:15:36.981Z,97589.44
2023-01-19T19:18:38.764Z,97589.31
2023-01-19T19:21:40.256Z,97584.06
2023-01-19T19:24:41.717Z,97588.31
2023-01-19T19:27:45.327Z,97586.59
2023-01-19T19:30:48.135Z,97586.53
2023-01-19T19:33:50.862Z,97586.69
2023-01-19T19:36:52.640Z,97579.84
2023-01-19T19:39:55.715Z,97591.91
2023-01-19T19:42:58.812Z,97590.00
2023-01-19T19:46:01.682Z,97593.44
2023-01-19T19:49:03.069Z,97590.97
2023-01-19T19:52:04.607Z,97593.56
2023-01-19T19:55:07.901Z,97591.91
2023-01-19T19:58:09.365Z,97584.13
2023-01-19T20:01:12.638Z,97587.56
2023-01-19T20:04:14.306Z,97594.91
2023-01-19T20:07:17.943Z,97586.91
2023-01-19T20:10:19.677Z,97582.13
2023-01-19T20:13:22.072Z,97583.94
2023-01-19T20:16:23.784Z,97596.72
2023-01-19T20:19:25.317Z,97592.44
2023-01-19T20:22:26.779Z,97592.22
2023-01-19T20:25:28.288Z,97600.38
2023-01-19T20:28:29.745Z,97603.44
2023-01-19T20:31:31.833Z,97600.03
2023-01-19T20:34:33.880Z,97610.38
2023-01-19T20:37:35.400Z,97606.09
2023-01-19T20:40:36.913Z,97615.59
2023-01-19T20:43:38.377Z,97610.19
2023-01-19T20:46:40.026Z,97612.56
2023-01-19T20:49:42.003Z,97602.38
2023-01-19T20:52:43.493Z,97608.38
2023-01-19T20:55:44.952Z,97614.47
2023-01-19T20:58:46.405Z,97613.44
2023-01-19T21:01:48.695Z,97616.28
2023-01-19T21:04:53.186Z,97620.66
2023-01-19T21:07:54.667Z,97632.44
2023-01-19T21:10:56.916Z,97626.63
2023-01-19T21:13:58.396Z,97622.16
2023-01-19T21:16:59.865Z,97627.09
2023-01-19T21:20:01.364Z,97633.88
2023-01-19T21:23:02.869Z,97632.94
2023-01-19T21:26:04.372Z,97632.09
2023-01-19T21:29:05.889Z,97638.81
2023-01-19T21:32:07.421Z,97639.88
2023-01-19T21:35:09.093Z,97641.66
2023-01-19T21:38:10.585Z,97645.91
2023-01-19T21:41:12.729Z,97641.38
2023-01-19T21:44:14.322Z,97643.28
2023-01-19T21:47:15.805Z,97645.78
2023-01-19T21:50:17.355Z,97647.34
2023-01-19T21:53:18.800Z,97651.81
2023-01-19T21:56:20.300Z,97653.53
2023-01-19T21:59:21.751Z,97655.16
2023-01-19T22:02:37.568Z,97658.78
2023-01-19T22:05:39.896Z,97659.63
2023-01-19T22:08:41.409Z,97658.75
2023-01-19T22:11:42.940Z,97669.13
2023-01-19T22:14:44.413Z,97661.44
2023-01-19T22:17:45.890Z,97668.28
2023-01-19T22:20:47.370Z,97666.28
2023-01-19T22:23:52.401Z,97665.72
2023-01-19T22:26:53.860Z,97669.00
2023-01-19T22:29:55.372Z,97669.81
2023-01-19T22:32:56.857Z,97669.25
2023-01-19T22:36:10.384Z,97665.72
2023-01-19T22:39:12.169Z,97673.63
2023-01-19T22:42:13.657Z,97674.19
2023-01-19T22:45:15.598Z,97674.34
2023-01-19T22:48:17.255Z,97678.63
2023-01-19T22:51:18.974Z,97682.25
2023-01-19T22:54:22.908Z,97674.38
2023-01-19T22:57:24.528Z,97681.97
2023-01-19T23:00:26.004Z,97686.34
2023-01-19T23:03:27.454Z,97685.28
2023-01-19T23:06:30.120Z,97681.88
2023-01-19T23:09:31.665Z,97682.66
2023-01-19T23:12:33.104Z,97678.56
2023-01-19T23:15:34.931Z,97684.78
2023-01-19T23:18:36.474Z,97690.94
2023-01-19T23:21:37.943Z,97696.19
2023-01-19T23:24:39.452Z,97691.22
2023-01-19T23:27:40.906Z,97693.56
2023-01-19T23:30:42.543Z,97693.72
2023-01-19T23:33:44.234Z,97692.78
2023-01-19T23:36:45.856Z,97698.59
2023-01-19T23:39:47.329Z,97695.19
2023-01-19T23:42:48.767Z,97696.03
2023-01-19T23:45:50.335Z,97705.97
2023-01-19T23:48:51.793Z,97704.56
2023-01-19T23:51:53.426Z,97703.78
2023-01-19T23:54:54.923Z,97700.22
2023-01-19T23:57:56.391Z,97695.59
